Lumberton, New Mexico
Current Conditions -  °F | °C
As of 7:53 PM on Saturday 25 Oct 2014 (Local Time) from KDRO Reporting Station
Clear Clear  
Wind Chill: 53°   Ceiling: Unl
Heat Index: 53°   Visibility: 10mi
Dew Point: 36°   Wind: 3mph
Humidity: 52%   Direction: 10°N
Pressure: 30.24"   Gusts: NA
Location:  36.6026°N, 107.231°W
Report Text: KDRO 260153Z AUTO 01003KT 10SM CLR 12/02 A3024 RMK AO2 SLP226 T01170022
Loading
Personal Weather Stations






























Interactive Weather Map
Tropical Storm Tracking
New forecast layout! Learn more

10-Day Weather Forecast

Advertisements
Track Severe Weather on mobile